createdAt,value
2018-09-12T00:02:18.394Z,2.03
2018-09-12T00:05:05.887Z,2.00
2018-09-12T00:07:53.429Z,1.75
2018-09-12T00:10:44.148Z,1.77
2018-09-12T00:13:31.396Z,1.87
2018-09-12T00:16:19.532Z,1.58
2018-09-12T00:19:07.418Z,2.12
2018-09-12T00:21:56.506Z,2.00
2018-09-12T00:27:55.959Z,1.48
2018-09-12T00:30:43.731Z,2.15
2018-09-12T00:33:33.607Z,2.03
2018-09-12T00:43:30.310Z,1.80
2018-09-12T00:46:18.278Z,1.80
2018-09-12T00:49:06.212Z,2.28
2018-09-12T00:51:54.524Z,2.10
2018-09-12T00:54:43.709Z,2.03
2018-09-12T00:57:33.151Z,1.85
2018-09-12T01:00:20.862Z,2.05
2018-09-12T01:03:08.332Z,2.12
2018-09-12T01:05:55.704Z,2.20
2018-09-12T01:08:43.196Z,2.03
2018-09-12T01:11:30.997Z,1.98
2018-09-12T01:14:18.851Z,2.10
2018-09-12T01:17:06.147Z,1.95
2018-09-12T01:19:53.810Z,2.17
2018-09-12T01:22:41.615Z,2.12
2018-09-12T01:25:28.987Z,1.92
2018-09-12T01:28:16.350Z,1.87
2018-09-12T01:31:03.583Z,1.90
2018-09-12T01:33:50.936Z,1.90
2018-09-12T01:36:38.567Z,1.70
2018-09-12T01:39:27.373Z,1.80
2018-09-12T01:42:15.179Z,2.33
2018-09-12T01:45:02.707Z,2.08
2018-09-12T01:47:50.264Z,2.08
2018-09-12T01:50:37.461Z,2.20
2018-09-12T01:53:24.777Z,1.80
2018-09-12T01:56:12.328Z,2.00
2018-09-12T01:58:59.764Z,2.17
2018-09-12T02:01:47.477Z,2.20
2018-09-12T02:04:35.021Z,1.90
2018-09-12T02:07:22.600Z,1.87
2018-09-12T02:13:17.001Z,1.80
2018-09-12T02:16:04.324Z,2.20
2018-09-12T02:18:51.737Z,1.55
2018-09-12T02:21:39.001Z,1.92
2018-09-12T02:24:29.189Z,2.12
2018-09-12T02:27:16.780Z,1.87
2018-09-12T02:30:04.554Z,2.00
2018-09-12T02:32:51.970Z,2.17
2018-09-12T02:35:40.455Z,2.30
2018-09-12T02:38:35.377Z,1.90
2018-09-12T02:41:22.633Z,2.03
2018-09-12T02:44:10.320Z,2.10
2018-09-12T02:46:58.048Z,1.98
2018-09-12T02:50:01.281Z,1.77
2018-09-12T02:52:48.611Z,2.00
2018-09-12T02:55:36.124Z,2.22
2018-09-12T02:58:23.550Z,2.40
2018-09-12T03:01:10.983Z,2.05
2018-09-12T03:03:58.677Z,2.00
2018-09-12T03:06:46.240Z,2.08
2018-09-12T03:09:33.968Z,2.12
2018-09-12T03:12:21.493Z,2.30
2018-09-12T03:15:09.054Z,1.90
2018-09-12T03:17:56.854Z,2.22
2018-09-12T03:23:51.586Z,2.10
2018-09-12T03:26:38.843Z,2.35
2018-09-12T03:29:26.439Z,2.75
2018-09-12T03:35:22.482Z,2.35
2018-09-12T03:38:09.989Z,2.08
2018-09-12T03:40:57.578Z,2.15
2018-09-12T03:43:45.983Z,2.62
2018-09-12T03:46:33.244Z,2.55
2018-09-12T03:49:20.733Z,2.30
2018-09-12T03:52:08.072Z,2.50
2018-09-12T03:54:55.449Z,2.45
2018-09-12T03:57:43.900Z,2.70
2018-09-12T04:07:11.095Z,2.25
2018-09-12T04:19:24.145Z,2.37
2018-09-12T04:22:11.736Z,2.85
2018-09-12T04:24:59.674Z,2.92
2018-09-12T04:40:18.836Z,2.60
2018-09-12T04:55:58.988Z,2.55
2018-09-12T04:58:46.946Z,2.85
2018-09-12T05:01:33.997Z,3.00
2018-09-12T05:04:21.623Z,2.92
2018-09-12T05:07:09.013Z,2.92
2018-09-12T05:09:56.209Z,2.55
2018-09-12T05:12:43.296Z,3.53
2018-09-12T05:15:30.955Z,3.17
2018-09-12T05:18:18.577Z,3.42
2018-09-12T05:21:06.141Z,3.35
2018-09-12T05:23:53.438Z,3.95
2018-09-12T05:26:41.741Z,3.12
2018-09-12T05:29:29.454Z,2.85
2018-09-12T05:32:16.880Z,2.92
2018-09-12T05:35:05.224Z,2.47
2018-09-12T05:37:52.983Z,2.95
2018-09-12T05:40:43.160Z,3.53
2018-09-12T05:43:30.698Z,3.40
2018-09-12T05:46:18.217Z,2.83
2018-09-12T05:49:05.667Z,3.10
2018-09-12T05:51:53.166Z,3.42
2018-09-12T05:54:42.807Z,3.53
2018-09-12T05:57:30.554Z,2.67
2018-09-12T06:00:18.614Z,3.25
2018-09-12T06:03:06.225Z,2.85
2018-09-12T06:05:53.690Z,3.03
2018-09-12T06:08:41.281Z,2.50
2018-09-12T06:11:32.088Z,2.42
2018-09-12T06:14:19.276Z,2.35
2018-09-12T06:17:06.719Z,2.45
2018-09-12T06:19:54.321Z,2.45
2018-09-12T06:22:44.658Z,2.83
2018-09-12T06:25:32.208Z,2.35
2018-09-12T06:28:19.561Z,2.60
2018-09-12T06:31:06.752Z,2.62
2018-09-12T06:33:54.172Z,2.72
2018-09-12T06:36:41.578Z,2.72
2018-09-12T06:39:29.244Z,2.58
2018-09-12T06:42:16.508Z,2.65
2018-09-12T06:45:04.048Z,2.70
2018-09-12T06:47:51.351Z,2.37
2018-09-12T06:50:39.034Z,2.30
2018-09-12T06:53:26.650Z,2.40
2018-09-12T06:56:14.047Z,2.33
2018-09-12T06:59:01.783Z,2.83
2018-09-12T07:01:49.653Z,2.97
2018-09-12T07:04:38.563Z,2.22
2018-09-12T07:07:25.941Z,2.30
2018-09-12T07:10:13.402Z,2.50
2018-09-12T07:13:00.658Z,2.53
2018-09-12T07:15:47.952Z,2.47
2018-09-12T07:18:35.437Z,3.03
2018-09-12T07:21:23.169Z,2.40
2018-09-12T07:24:10.529Z,2.25
2018-09-12T07:26:58.165Z,2.10
2018-09-12T07:29:45.318Z,2.25
2018-09-12T07:32:32.883Z,2.47
2018-09-12T07:35:21.104Z,2.47
2018-09-12T07:38:08.300Z,2.30
2018-09-12T07:40:55.584Z,2.20
2018-09-12T07:43:43.057Z,2.60
2018-09-12T07:46:30.480Z,2.00
2018-09-12T07:49:17.982Z,1.83
2018-09-12T07:52:05.425Z,2.17
2018-09-12T07:54:53.296Z,1.90
2018-09-12T07:57:40.953Z,2.10
2018-09-12T08:00:28.509Z,2.00
2018-09-12T08:03:15.774Z,2.37
2018-09-12T08:06:02.830Z,2.20
2018-09-12T08:08:50.382Z,2.40
2018-09-12T08:11:37.811Z,2.30
2018-09-12T08:14:25.311Z,1.90
2018-09-12T08:17:12.859Z,1.87
2018-09-12T08:20:00.292Z,1.98
2018-09-12T08:22:47.807Z,1.90
2018-09-12T08:25:35.316Z,1.92
2018-09-12T08:28:22.560Z,1.90
2018-09-12T08:31:10.107Z,1.87
2018-09-12T08:33:57.518Z,2.15
2018-09-12T08:36:45.040Z,1.85
2018-09-12T08:39:32.332Z,1.83
2018-09-12T08:42:19.988Z,2.00
2018-09-12T08:45:07.412Z,1.60
2018-09-12T08:47:54.871Z,1.60
2018-09-12T08:50:42.134Z,1.77
2018-09-12T08:53:29.335Z,1.60
2018-09-12T08:56:16.917Z,1.50
2018-09-12T08:59:04.302Z,1.62
2018-09-12T09:01:51.451Z,1.83
2018-09-12T09:04:39.266Z,1.60
2018-09-12T09:07:26.843Z,1.98
2018-09-12T09:10:14.206Z,1.73
2018-09-12T09:13:01.667Z,1.73
2018-09-12T09:15:49.194Z,1.70
2018-09-12T09:18:36.763Z,1.80
2018-09-12T09:21:24.165Z,1.85
2018-09-12T09:24:11.508Z,1.58
2018-09-12T09:26:59.081Z,1.30
2018-09-12T09:29:46.484Z,1.30
2018-09-12T09:32:34.108Z,1.50
2018-09-12T09:35:21.793Z,1.77
2018-09-12T09:38:09.651Z,1.30
2018-09-12T09:40:57.011Z,1.40
2018-09-12T09:43:44.341Z,1.50
2018-09-12T09:46:31.684Z,1.37
2018-09-12T09:49:19.571Z,1.33
2018-09-12T09:52:07.026Z,2.00
2018-09-12T09:54:54.689Z,1.50
2018-09-12T09:57:42.341Z,1.40
2018-09-12T10:00:29.588Z,1.30
2018-09-12T10:03:16.694Z,1.23
2018-09-12T10:06:03.850Z,1.33
2018-09-12T10:08:51.557Z,1.30
2018-09-12T10:11:38.993Z,1.42
2018-09-12T10:14:26.284Z,1.50
2018-09-12T10:17:13.363Z,1.70
2018-09-12T10:20:00.803Z,1.17
2018-09-12T10:22:48.434Z,1.60
2018-09-12T10:25:35.659Z,1.23
2018-09-12T10:28:23.597Z,1.80
2018-09-12T10:31:10.949Z,1.27
2018-09-12T10:37:04.634Z,1.20
2018-09-12T10:39:52.355Z,1.60
2018-09-12T10:42:39.616Z,1.27
2018-09-12T10:45:26.866Z,1.50
2018-09-12T10:48:14.407Z,1.50
2018-09-12T10:51:02.068Z,1.50
2018-09-12T10:53:49.655Z,1.27
2018-09-12T10:56:37.213Z,1.40
2018-09-12T10:59:24.542Z,1.30
2018-09-12T11:02:12.257Z,1.62
2018-09-12T11:08:08.194Z,1.37
2018-09-12T11:10:55.599Z,1.20
2018-09-12T11:13:43.349Z,1.45
2018-09-12T11:16:30.757Z,1.77
2018-09-12T11:19:18.031Z,1.87
2018-09-12T11:22:05.529Z,1.60
2018-09-12T11:24:55.565Z,1.60
2018-09-12T11:27:42.836Z,1.67
2018-09-12T11:30:30.351Z,1.40
2018-09-12T11:33:17.834Z,1.48
2018-09-12T11:36:05.403Z,1.77
2018-09-12T11:38:53.295Z,1.70
2018-09-12T11:41:48.846Z,1.70
2018-09-12T11:47:45.297Z,1.58
2018-09-12T11:50:35.134Z,1.58
2018-09-12T11:53:35.656Z,1.85
2018-09-12T11:56:23.211Z,1.42
2018-09-12T11:59:12.626Z,1.50
2018-09-12T12:01:59.793Z,1.80
2018-09-12T12:04:47.233Z,1.83
2018-09-12T12:07:34.388Z,1.60
2018-09-12T12:10:24.255Z,1.52
2018-09-12T12:13:12.126Z,1.50
2018-09-12T12:15:59.805Z,1.48
2018-09-12T12:18:47.245Z,1.40
2018-09-12T12:21:34.567Z,1.48
2018-09-12T12:24:22.064Z,1.75
2018-09-12T12:27:09.162Z,1.52
2018-09-12T12:29:56.685Z,1.65
2018-09-12T12:33:03.355Z,1.52
2018-09-12T12:35:51.005Z,1.30
2018-09-12T12:38:38.425Z,1.30
2018-09-12T12:41:26.085Z,1.50
2018-09-12T12:44:13.673Z,1.65
2018-09-12T12:47:03.535Z,1.67
2018-09-12T12:49:50.975Z,1.62
2018-09-12T12:52:38.390Z,1.40
2018-09-12T12:55:25.799Z,1.62
2018-09-12T12:58:13.530Z,1.60
2018-09-12T13:01:03.640Z,1.30
2018-09-12T13:03:51.012Z,1.42
2018-09-12T13:06:38.605Z,1.58
2018-09-12T13:09:27.241Z,1.58
2018-09-12T13:12:14.838Z,1.67
2018-09-12T13:15:05.269Z,1.60
2018-09-12T13:17:52.471Z,1.60
2018-09-12T13:20:39.703Z,1.67
2018-09-12T13:23:27.537Z,2.10
2018-09-12T13:26:15.641Z,1.30
2018-09-12T13:29:02.718Z,1.65
2018-09-12T13:31:50.329Z,1.60
2018-09-12T13:34:38.119Z,1.42
2018-09-12T13:37:25.496Z,1.62
2018-09-12T13:40:13.069Z,1.98
2018-09-12T13:43:00.715Z,1.60
2018-09-12T13:45:51.294Z,1.65
2018-09-12T13:55:16.848Z,1.75
2018-09-12T13:58:04.967Z,1.65
2018-09-12T14:00:52.646Z,1.33
2018-09-12T14:03:40.551Z,1.52
2018-09-12T14:06:28.161Z,1.45
2018-09-12T14:09:16.128Z,1.65
2018-09-12T14:12:04.138Z,1.70
2018-09-12T14:14:51.707Z,1.52
2018-09-12T14:17:40.718Z,1.50
2018-09-12T14:20:28.645Z,1.65
2018-09-12T14:23:15.927Z,1.58
2018-09-12T14:26:03.318Z,1.80
2018-09-12T14:28:50.375Z,2.00
2018-09-12T14:31:40.390Z,1.55
2018-09-12T14:34:28.453Z,1.70
2018-09-12T14:37:15.935Z,2.00
2018-09-12T14:40:03.259Z,2.30
2018-09-12T14:42:50.891Z,2.12
2018-09-12T14:45:38.870Z,1.73
2018-09-12T14:48:26.367Z,1.62
2018-09-12T14:51:13.881Z,2.10
2018-09-12T14:54:01.994Z,1.95
2018-09-12T14:56:50.797Z,1.60
2018-09-12T15:02:51.599Z,2.03
2018-09-12T15:05:41.529Z,1.85
2018-09-12T15:08:29.460Z,2.20
2018-09-12T15:11:21.459Z,1.90
2018-09-12T15:14:10.676Z,2.15
2018-09-12T15:17:01.866Z,2.10
2018-09-12T15:19:49.793Z,1.98
2018-09-12T15:22:38.049Z,1.65
2018-09-12T15:25:26.667Z,2.40
2018-09-12T15:28:15.176Z,2.30
2018-09-12T15:31:03.585Z,1.85
2018-09-12T15:33:51.013Z,2.45
2018-09-12T15:36:38.276Z,2.15
2018-09-12T15:39:25.649Z,1.73
2018-09-12T15:42:13.087Z,2.10
2018-09-12T15:45:00.718Z,1.80
2018-09-12T15:50:55.051Z,1.52
2018-09-12T15:53:42.486Z,1.30
2018-09-12T15:56:30.179Z,1.37
2018-09-12T15:59:17.703Z,1.90
2018-09-12T16:02:05.286Z,1.58
2018-09-12T16:04:53.164Z,1.52
2018-09-12T16:07:40.704Z,1.45
2018-09-12T16:13:35.487Z,1.30
2018-09-12T16:16:22.908Z,1.77
2018-09-12T16:19:14.771Z,1.73
2018-09-12T16:22:02.324Z,1.42
2018-09-12T16:24:50.301Z,1.95
2018-09-12T16:27:37.906Z,1.50
2018-09-12T16:30:25.443Z,1.60
2018-09-12T16:33:13.120Z,1.80
2018-09-12T16:39:07.175Z,1.33
2018-09-12T16:41:54.715Z,1.90
2018-09-12T16:44:42.131Z,3.20
2018-09-12T16:56:56.359Z,3.60
2018-09-12T16:59:45.996Z,2.55
2018-09-12T17:02:34.288Z,3.10
2018-09-12T17:05:24.083Z,3.30
2018-09-12T17:08:12.059Z,2.80
2018-09-12T17:10:59.672Z,2.90
2018-09-12T17:13:54.905Z,3.00
2018-09-12T17:16:42.556Z,3.10
2018-09-12T17:19:29.881Z,3.50
2018-09-12T17:22:17.699Z,3.73
2018-09-12T17:25:05.601Z,3.25
2018-09-12T17:34:13.012Z,2.53
2018-09-12T17:37:00.369Z,3.10
2018-09-12T17:39:48.205Z,2.40
2018-09-12T17:42:42.623Z,2.72
2018-09-12T18:01:17.969Z,2.28
2018-09-12T18:04:05.196Z,2.58
2018-09-12T18:22:34.718Z,3.37
2018-09-12T18:25:23.776Z,2.97
2018-09-12T18:28:11.384Z,3.00
2018-09-12T18:37:24.201Z,2.95
2018-09-12T18:40:13.773Z,2.90
2018-09-12T18:43:01.867Z,3.00
2018-09-12T18:45:49.926Z,3.03
2018-09-12T18:48:38.200Z,2.85
2018-09-12T18:51:27.218Z,2.90
2018-09-12T18:54:16.303Z,2.55
2018-09-12T18:57:05.800Z,2.78
2018-09-12T18:59:53.651Z,3.00
2018-09-12T19:02:43.288Z,2.90
2018-09-12T19:05:31.513Z,2.97
2018-09-12T19:08:19.854Z,3.10
2018-09-12T19:11:09.892Z,3.13
2018-09-12T19:14:05.844Z,2.60
2018-09-12T19:35:21.651Z,2.03
2018-09-12T19:38:12.975Z,1.87
2018-09-12T19:41:09.045Z,1.80
2018-09-12T19:44:12.346Z,1.75
2018-09-12T20:18:36.269Z,1.20
2018-09-12T20:46:40.830Z,0.90
2018-09-12T20:49:34.991Z,0.77
2018-09-12T21:14:30.895Z,0.70
2018-09-12T21:26:46.922Z,0.60
2018-09-12T21:51:43.495Z,1.02
2018-09-12T21:54:31.275Z,0.93
2018-09-12T21:57:28.290Z,0.75
2018-09-12T22:06:44.098Z,0.70
2018-09-12T22:09:32.604Z,0.93
2018-09-12T22:12:19.828Z,1.00
2018-09-12T22:15:17.105Z,0.80
2018-09-12T22:18:14.298Z,0.70
2018-09-12T22:21:01.864Z,0.73
2018-09-12T22:23:49.358Z,0.90
2018-09-12T22:26:37.618Z,1.05
2018-09-12T22:35:37.724Z,0.90
